Time;durP1;ratioP1;P1;durP2;ratioP2;P2;SDS_P1;SDS_P2;PMS_P1;PMS_P2;Temp;Humidity;BMP_temperature;BMP_pressure;BME280_temperature;BME280_humidity;BME280_pressure;Samples;Min_cycle;Max_cycle;Signal;HPM_P1;HPM_P2
2021/09/09 00:02:42;;;;;;;34.73;21.70;;;;;;;13.91;76.27;99781.89;1889947;76;22164;-60
2021/09/09 00:05:37;;;;;;;37.78;22.27;;;;;;;13.86;76.53;99780.98;1889988;76;20354;-64
2021/09/09 00:08:32;;;;;;;36.73;21.02;;;;;;;13.80;76.75;99778.33;1870760;76;22144;-60
2021/09/09 00:11:07;;;;;;;40.45;22.52;;;;;;;13.76;76.94;99785.19;1870625;76;22144;-59
2021/09/09 00:13:42;;;;;;;37.98;23.30;;;;;;;13.75;77.17;99783.89;1870717;76;22133;-60
2021/09/09 00:16:18;;;;;;;35.73;22.55;;;;;;;13.75;77.29;99778.70;1870644;76;22124;-62
2021/09/09 00:18:52;;;;;;;35.15;21.93;;;;;;;13.76;77.40;99781.73;1870702;76;22150;-63
2021/09/09 00:21:33;;;;;;;37.90;22.07;;;;;;;13.76;77.41;99776.55;1869841;76;22186;-51
2021/09/09 00:24:08;;;;;;;37.10;22.27;;;;;;;13.77;77.43;99775.70;1870701;76;22101;-54
2021/09/09 00:26:43;;;;;;;34.95;20.50;;;;;;;13.76;77.52;99781.73;1870717;76;22132;-56
2021/09/09 00:29:38;;;;;;;33.45;21.15;;;;;;;13.74;77.63;99782.13;1870724;76;22140;-66
2021/09/09 00:32:13;;;;;;;37.03;22.15;;;;;;;13.74;77.72;99779.54;1870695;76;22137;-61
2021/09/09 00:34:48;;;;;;;35.73;21.77;;;;;;;13.75;77.75;99781.30;1870714;76;22109;-63
2021/09/09 00:37:22;;;;;;;35.13;22.50;;;;;;;13.74;77.75;99784.33;1870691;76;22575;-59
2021/09/09 00:39:57;;;;;;;39.00;22.02;;;;;;;13.73;77.72;99781.70;1870685;76;22105;-59
2021/09/09 00:42:32;;;;;;;32.42;19.55;;;;;;;13.73;77.67;99784.30;1870793;76;22109;-58
2021/09/09 00:45:27;;;;;;;31.00;18.77;;;;;;;13.74;77.50;99780.44;1870897;76;22116;-56
2021/09/09 00:48:02;;;;;;;28.75;18.92;;;;;;;13.76;77.40;99776.11;1855058;76;27935;-60
2021/09/09 00:50:43;;;;;;;30.80;18.90;;;;;;;13.87;77.28;99780.14;1869842;76;22161;-63
2021/09/09 00:53:19;;;;;;;30.65;18.67;;;;;;;13.93;76.98;99781.48;1870713;76;22193;-59
2021/09/09 00:56:13;;;;;;;32.55;19.17;;;;;;;13.99;76.76;99781.97;1870653;76;22137;-63
2021/09/09 00:59:08;;;;;;;31.90;19.82;;;;;;;13.99;76.60;99782.88;1870520;76;22139;-59
2021/09/09 01:01:44;;;;;;;30.43;19.98;;;;;;;13.99;76.46;99784.57;1870718;76;22532;-62
2021/09/09 01:04:22;;;;;;;33.40;21.27;;;;;;;13.99;76.35;99782.88;1854808;76;27937;-62
2021/09/09 01:07:17;;;;;;;30.82;19.27;;;;;;;14.08;76.23;99786.84;1870569;76;22168;-56
2021/09/09 01:09:52;;;;;;;26.30;18.07;;;;;;;14.07;76.17;99786.84;1854833;76;27921;-64
2021/09/09 01:12:47;;;;;;;28.85;19.30;;;;;;;14.19;76.12;99783.47;1870643;76;22121;-58
2021/09/09 01:15:23;;;;;;;29.92;18.75;;;;;;;14.20;75.83;99781.34;1889967;76;22185;-63
2021/09/09 01:17:58;;;;;;;36.13;20.27;;;;;;;14.20;75.68;99778.74;1870745;76;22140;-55
2021/09/09 01:20:33;;;;;;;32.98;20.68;;;;;;;14.19;75.61;99779.58;1870712;76;22572;-60
2021/09/09 01:23:08;;;;;;;32.98;21.85;;;;;;;14.15;75.71;99776.53;1870690;76;22529;-65
2021/09/09 01:25:43;;;;;;;33.45;22.35;;;;;;;14.09;75.75;99783.41;1854853;76;27953;-64
2021/09/09 01:28:37;;;;;;;35.55;21.30;;;;;;;14.10;75.94;99779.94;1870613;76;22120;-63
2021/09/09 01:31:14;;;;;;;33.35;21.00;;;;;;;14.05;76.10;99780.76;1870715;76;22536;-60
2021/09/09 01:33:57;;;;;;;35.20;22.27;;;;;;;13.99;76.35;99779.37;1889957;76;22108;-62
2021/09/09 01:36:53;;;;;;;34.13;22.60;;;;;;;13.93;76.57;99781.48;1870781;76;22148;-58
2021/09/09 01:39:28;;;;;;;31.93;21.52;;;;;;;13.87;76.74;99778.41;1870677;76;22133;-66
2021/09/09 01:42:22;;;;;;;29.60;19.27;;;;;;;13.82;76.91;99774.03;1870824;76;22140;-61
2021/09/09 01:44:57;;;;;;;33.05;19.65;;;;;;;13.81;76.93;99773.57;1870684;76;22149;-66
2021/09/09 01:47:33;;;;;;;34.10;19.20;;;;;;;13.80;76.89;99767.95;1870674;76;22145;-58
2021/09/09 01:50:09;;;;;;;34.27;20.48;;;;;;;13.81;76.95;99762.76;1870703;76;22119;-57
2021/09/09 01:53:04;;;;;;;29.65;19.60;;;;;;;13.84;76.99;99764.52;1870705;76;22172;-58
2021/09/09 01:55:40;;;;;;;33.50;22.35;;;;;;;13.84;77.03;99765.81;1889960;76;22131;-58
2021/09/09 01:58:15;;;;;;;41.77;22.00;;;;;;;13.81;77.16;99761.46;1870699;76;22519;-58
2021/09/09 02:00:50;;;;;;;31.27;21.17;;;;;;;13.79;77.24;99763.20;1870700;76;22105;-61
2021/09/09 02:03:45;;;;;;;39.42;22.62;;;;;;;13.75;77.45;99769.62;1874346;75;22195;-64
2021/09/09 02:06:30;;;;;;;32.40;22.13;;;;;;;13.68;77.60;99765.64;1870558;76;22576;-64
2021/09/09 02:09:24;;;;;;;35.25;21.60;;;;;;;13.61;77.84;99771.64;1890064;76;22120;-63
2021/09/09 02:12:17;;;;;;;34.98;21.17;;;;;;;13.55;78.09;99768.95;1870645;76;22137;-51
2021/09/09 02:14:53;;;;;;;34.85;22.40;;;;;;;13.53;78.29;99764.17;1870615;76;22105;-63
2021/09/09 02:17:27;;;;;;;32.25;21.97;;;;;;;13.53;78.46;99764.17;1870711;76;22148;-54
2021/09/09 02:20:04;;;;;;;38.48;22.58;;;;;;;13.51;78.58;99764.61;1870702;76;22160;-60
2021/09/09 02:22:39;;;;;;;35.30;23.50;;;;;;;13.49;78.76;99762.41;1889969;76;22115;-59
2021/09/09 02:25:39;;;;;;;34.45;21.60;;;;;;;13.43;78.89;99761.92;1869789;76;22193;-59
2021/09/09 02:28:14;;;;;;;36.50;22.52;;;;;;;13.36;79.10;99761.39;1870700;76;22101;-66
2021/09/09 02:30:49;;;;;;;33.63;24.07;;;;;;;13.34;79.29;99762.23;1854739;76;27932;-57
2021/09/09 02:33:24;;;;;;;37.85;23.38;;;;;;;13.41;79.42;99753.69;1870679;76;22132;-63
2021/09/09 02:35:59;;;;;;;40.67;22.62;;;;;;;13.43;79.36;99762.33;1870658;76;22164;-58
2021/09/09 02:38:53;;;;;;;37.85;24.35;;;;;;;13.42;79.41;99760.59;1872628;76;22176;-53
2021/09/09 02:41:30;;;;;;;37.45;23.50;;;;;;;13.41;79.41;99764.05;1852246;76;22209;-61
2021/09/09 02:44:24;;;;;;;38.30;22.80;;;;;;;13.37;79.51;99760.97;1854229;76;22555;-59
2021/09/09 02:47:00;;;;;;;34.03;24.10;;;;;;;13.32;79.65;99766.52;1836494;76;28133;-66
2021/09/09 02:49:41;;;;;;;36.88;22.50;;;;;;;13.34;79.76;99762.23;1862752;76;22222;-62
2021/09/09 02:52:35;;;;;;;40.48;23.95;;;;;;;13.31;79.76;99760.90;1870625;76;22585;-62
2021/09/09 02:55:28;;;;;;;38.38;24.10;;;;;;;13.25;79.97;99762.53;1890005;76;22565;-63
2021/09/09 02:58:03;;;;;;;40.80;23.75;;;;;;;13.20;80.07;99756.42;1870885;76;22192;-62
2021/09/09 03:00:38;;;;;;;41.08;24.05;;;;;;;13.14;80.21;99761.50;1871002;76;22109;-59
2021/09/09 03:03:13;;;;;;;33.95;23.30;;;;;;;13.09;80.47;99764.89;1871115;76;22146;-58
2021/09/09 03:05:48;;;;;;;37.83;23.75;;;;;;;13.04;80.72;99763.09;1870990;76;22137;-63
2021/09/09 03:08:29;;;;;;;41.33;24.55;;;;;;;13.02;80.87;99762.19;1890027;76;22181;-63
2021/09/09 03:11:03;;;;;;;34.88;22.73;;;;;;;12.98;81.01;99756.97;1873353;76;22156;-63
2021/09/09 03:13:38;;;;;;;35.68;21.33;;;;;;;12.95;81.90;99758.20;1889935;76;22172;-60
2021/09/09 03:16:14;;;;;;;35.58;22.93;;;;;;;13.06;82.41;99757.08;1889897;76;22582;-61
2021/09/09 03:18:56;;;;;;;37.28;23.12;;;;;;;13.20;81.82;99755.13;1869695;76;22178;-63
2021/09/09 03:21:50;;;;;;;38.88;23.73;;;;;;;13.20;81.43;99759.41;1870623;76;22148;-61
2021/09/09 03:24:25;;;;;;;34.98;23.07;;;;;;;13.13;81.27;99759.77;1870325;76;22133;-64
2021/09/09 03:27:19;;;;;;;44.40;24.12;;;;;;;13.05;81.37;99760.06;1870331;76;22172;-62
2021/09/09 03:30:13;;;;;;;39.65;24.47;;;;;;;12.97;81.49;99756.50;1870664;76;22141;-61
2021/09/09 03:33:13;;;;;;;41.77;23.50;;;;;;;12.91;81.63;99762.91;1869831;76;22587;-64
2021/09/09 03:36:07;;;;;;;41.95;25.30;;;;;;;12.90;81.88;99763.34;1870637;76;22140;-63
2021/09/09 03:38:42;;;;;;;41.50;24.30;;;;;;;12.91;82.02;99769.39;1870697;76;22547;-64
2021/09/09 03:41:17;;;;;;;38.38;24.55;;;;;;;12.91;82.00;99768.95;1889972;76;22104;-62
2021/09/09 03:43:58;;;;;;;37.88;25.40;;;;;;;12.92;82.08;99773.70;1869818;76;22596;-60
2021/09/09 03:46:32;;;;;;;40.58;24.43;;;;;;;12.94;82.08;99777.20;1870793;76;22141;-63
2021/09/09 03:49:07;;;;;;;38.42;24.15;;;;;;;12.91;82.13;99768.95;1889954;76;22155;-59
2021/09/09 03:51:46;;;;;;;39.60;23.87;;;;;;;12.93;82.13;99774.17;1870568;76;22164;-65
2021/09/09 03:54:27;;;;;;;38.67;23.90;;;;;;;12.95;82.19;99779.83;1869849;76;22153;-65
2021/09/09 03:57:20;;;;;;;39.58;23.92;;;;;;;13.00;82.12;99783.35;1870580;76;22539;-68
2021/09/09 04:00:02;;;;;;;40.67;24.65;;;;;;;13.03;82.01;99782.52;1889952;76;22185;-69
2021/09/09 04:02:45;;;;;;;36.77;23.62;;;;;;;13.08;81.90;99783.45;1889969;76;22638;-60
2021/09/09 04:05:38;;;;;;;34.20;21.75;;;;;;;13.06;81.84;99785.58;1889969;76;22116;-64
2021/09/09 04:08:13;;;;;;;35.75;22.70;;;;;;;13.06;81.90;99783.86;1890089;76;22148;-62
2021/09/09 04:10:50;;;;;;;37.05;23.90;;;;;;;13.14;81.75;99783.53;1870556;76;22619;-65
2021/09/09 04:13:24;;;;;;;40.33;23.52;;;;;;;13.20;81.61;99782.73;1890024;76;22163;-64
2021/09/09 04:16:18;;;;;;;38.98;23.18;;;;;;;13.30;81.35;99775.98;1870677;76;22178;-63
2021/09/09 04:18:54;;;;;;;36.25;23.77;;;;;;;13.37;81.02;99772.63;1873952;76;27940;-63
2021/09/09 04:21:29;;;;;;;36.65;23.57;;;;;;;13.49;80.75;99775.38;1870805;76;22097;-68
2021/09/09 04:24:05;;;;;;;39.40;22.67;;;;;;;13.58;80.39;99775.47;1870695;76;22133;-67
2021/09/09 04:26:40;;;;;;;40.23;24.23;;;;;;;13.63;80.13;99771.20;1889975;76;22171;-63
2021/09/09 04:29:16;;;;;;;34.83;21.55;;;;;;;13.68;79.84;99773.42;1870696;76;22165;-64
2021/09/09 04:31:57;;;;;;;38.63;23.00;;;;;;;13.77;79.58;99777.00;1889919;76;22155;-63
2021/09/09 04:34:51;;;;;;;36.55;22.65;;;;;;;13.85;79.25;99780.55;1870644;76;22129;-60
2021/09/09 04:37:26;;;;;;;36.95;22.58;;;;;;;13.89;79.00;99779.70;1889970;76;22558;-65
2021/09/09 04:40:04;;;;;;;37.10;22.75;;;;;;;13.96;79.02;99772.44;1889930;76;22167;-66
2021/09/09 04:42:39;;;;;;;36.98;23.52;;;;;;;14.06;78.60;99776.00;1889946;76;22578;-62
2021/09/09 04:45:32;;;;;;;35.40;22.70;;;;;;;14.33;78.28;99780.59;1870621;76;22149;-63
2021/09/09 04:48:07;;;;;;;34.38;22.77;;;;;;;15.34;76.59;99776.11;1870672;76;22133;-66
2021/09/09 04:50:42;;;;;;;32.33;21.42;;;;;;;16.54;72.87;99777.72;1870667;76;22136;-69
2021/09/09 04:53:36;;;;;;;34.43;21.70;;;;;;;17.91;68.87;99774.73;1870592;76;22121;-64
2021/09/09 04:56:10;;;;;;;33.10;20.68;;;;;;;19.05;64.94;99779.50;1870662;76;22544;-60
2021/09/09 04:59:05;;;;;;;34.35;20.43;;;;;;;20.21;60.13;99769.77;1870629;76;22136;-64
2021/09/09 05:01:41;;;;;;;31.50;21.30;;;;;;;21.24;56.40;99770.61;1854648;76;28311;-65
2021/09/09 05:04:19;;;;;;;32.73;20.52;;;;;;;22.27;53.41;99780.29;1870676;76;22137;-63
2021/09/09 05:06:54;;;;;;;32.83;22.67;;;;;;;23.26;50.27;99783.92;1854775;76;27940;-61
2021/09/09 05:09:49;;;;;;;27.82;19.85;;;;;;;24.22;47.38;99781.50;1889877;76;22246;-65
2021/09/09 05:12:29;;;;;;;28.05;18.75;;;;;;;25.09;44.98;99786.52;1889896;76;22562;-61
2021/09/09 05:15:06;;;;;;;25.50;18.52;;;;;;;25.99;42.59;99794.23;1889918;76;22159;-65
2021/09/09 05:17:42;;;;;;;30.20;18.85;;;;;;;26.76;40.86;99789.81;1870441;76;22595;-64
2021/09/09 05:20:17;;;;;;;27.50;18.73;;;;;;;27.31;39.41;99798.52;1870647;76;22592;-62
2021/09/09 05:22:52;;;;;;;25.23;16.65;;;;;;;28.04;38.21;99795.63;1870707;76;22129;-69
2021/09/09 05:25:46;;;;;;;29.75;18.67;;;;;;;28.82;36.49;99802.02;1870598;76;22137;-63
2021/09/09 05:28:21;;;;;;;24.98;17.10;;;;;;;29.35;35.32;99802.38;1870672;76;22173;-62
2021/09/09 05:30:56;;;;;;;29.42;17.67;;;;;;;29.59;34.70;99806.39;1870686;76;22556;-66
2021/09/09 05:33:38;;;;;;;27.73;17.90;;;;;;;30.11;33.77;99807.15;1889885;76;22145;-63
2021/09/09 05:36:16;;;;;;;22.52;16.37;;;;;;;30.81;32.56;99805.77;1870421;76;22194;-64
2021/09/09 05:38:53;;;;;;;24.35;16.60;;;;;;;31.54;31.63;99816.95;1889927;76;22469;-64
2021/09/09 05:41:28;;;;;;;24.20;17.32;;;;;;;32.11;30.61;99815.59;1854760;76;27963;-61
2021/09/09 05:44:04;;;;;;;23.38;16.48;;;;;;;32.78;29.50;99814.78;1854629;76;27973;-67
2021/09/09 05:46:58;;;;;;;24.57;15.45;;;;;;;33.39;28.44;99825.29;1889929;76;22260;-67
2021/09/09 05:49:33;;;;;;;21.95;15.53;;;;;;;33.82;27.87;99827.63;1850825;77;22199;-61
2021/09/09 05:52:07;;;;;;;22.07;15.55;;;;;;;34.18;27.29;99831.80;1889943;76;22077;-66
2021/09/09 05:55:04;;;;;;;18.10;14.30;;;;;;;34.76;26.53;99829.66;1870426;76;22533;-67
2021/09/09 05:57:40;;;;;;;22.42;15.88;;;;;;;35.20;25.96;99829.93;1870565;76;22056;-63
2021/09/09 06:00:34;;;;;;;21.35;14.47;;;;;;;35.62;25.39;99836.48;1889952;76;22461;-61
2021/09/09 06:03:09;;;;;;;19.42;13.88;;;;;;;35.90;24.97;99836.95;1870440;76;22095;-62
2021/09/09 06:05:45;;;;;;;21.60;15.07;;;;;;;35.90;24.78;99830.23;1874053;76;28354;-69
2021/09/09 06:08:39;;;;;;;18.02;14.70;;;;;;;36.02;24.54;99833.24;1854570;76;22078;-65
2021/09/09 06:11:14;;;;;;;18.67;13.78;;;;;;;36.27;24.34;99833.47;1869385;76;22120;-67
2021/09/09 06:13:55;;;;;;;22.48;14.80;;;;;;;36.60;23.96;99831.67;1859233;76;22249;-65
2021/09/09 06:16:31;;;;;;;20.15;14.70;;;;;;;36.81;23.73;99834.38;1870614;76;22066;-61
2021/09/09 06:19:06;;;;;;;19.70;14.27;;;;;;;37.05;23.33;99837.37;1855014;76;28356;-64
2021/09/09 06:21:46;;;;;;;24.63;14.83;;;;;;;37.33;23.14;99837.17;1869786;76;22116;-65
2021/09/09 06:24:27;;;;;;;18.05;14.25;;;;;;;37.67;22.82;99840.47;1868101;76;22619;-66
2021/09/09 06:27:02;;;;;;;19.37;13.90;;;;;;;37.86;22.52;99842.88;1848832;76;22129;-64
2021/09/09 06:29:56;;;;;;;21.40;14.30;;;;;;;38.12;22.26;99844.12;1886177;76;22081;-64
2021/09/09 06:32:32;;;;;;;16.50;12.75;;;;;;;38.25;21.99;99851.95;1868613;76;22173;-68
2021/09/09 06:35:09;;;;;;;18.35;13.38;;;;;;;38.38;21.79;99849.84;1856537;76;22130;-67
2021/09/09 06:38:02;;;;;;;20.30;12.93;;;;;;;38.61;21.64;99849.10;1854091;76;22176;-67
2021/09/09 06:40:37;;;;;;;24.40;13.30;;;;;;;38.81;21.43;99851.30;1888481;76;22153;-64
2021/09/09 06:43:12;;;;;;;16.07;12.82;;;;;;;39.00;21.26;99852.30;1865928;76;22110;-65
2021/09/09 06:45:52;;;;;;;18.17;12.73;;;;;;;39.17;21.09;99860.17;1853332;76;22128;-69
2021/09/09 06:48:27;;;;;;;19.82;13.08;;;;;;;39.12;21.04;99861.11;1889758;76;22089;-62
2021/09/09 06:51:08;;;;;;;19.07;12.80;;;;;;;39.22;20.98;99860.08;1869764;76;22082;-63
2021/09/09 06:53:42;;;;;;;19.75;13.28;;;;;;;39.36;20.80;99860.17;1870558;76;22079;-63
2021/09/09 06:56:17;;;;;;;13.58;11.48;;;;;;;39.37;20.94;99861.86;1870173;76;22490;-63
2021/09/09 06:58:53;;;;;;;16.32;11.90;;;;;;;39.59;20.63;99862.02;1881861;76;22098;-67
2021/09/09 07:01:33;;;;;;;17.02;12.00;;;;;;;39.73;20.41;99864.20;1856979;76;22135;-64
2021/09/09 07:04:28;;;;;;;20.48;11.25;;;;;;;39.78;20.33;99874.61;1882417;76;22103;-66
2021/09/09 07:07:08;;;;;;;20.10;12.35;;;;;;;39.91;20.40;99873.75;1889804;76;22768;-64
2021/09/09 07:09:43;;;;;;;16.20;11.90;;;;;;;40.30;20.04;99877.64;1870627;76;22188;-67
2021/09/09 07:12:18;;;;;;;17.02;11.45;;;;;;;40.31;20.06;99876.63;1870757;76;22117;-65
2021/09/09 07:14:52;;;;;;;18.60;11.45;;;;;;;40.46;20.13;99880.17;1826801;77;22160;-69
2021/09/09 07:17:30;;;;;;;14.58;11.78;;;;;;;40.50;19.90;99880.19;1870663;76;22078;-66
2021/09/09 07:20:06;;;;;;;16.25;11.75;;;;;;;40.64;19.76;99875.61;1868725;76;22090;-68
2021/09/09 07:22:47;;;;;;;18.05;11.55;;;;;;;40.76;19.63;99877.11;1855277;76;22082;-71
2021/09/09 07:25:21;;;;;;;13.08;10.05;;;;;;;40.63;19.87;99876.59;1889463;76;22538;-62
2021/09/09 07:28:16;;;;;;;16.37;11.33;;;;;;;40.35;20.11;99875.81;1870597;76;22090;-69
2021/09/09 07:30:51;;;;;;;14.98;11.15;;;;;;;40.43;19.90;99876.39;1869629;76;22137;-65
2021/09/09 07:33:46;;;;;;;15.18;10.50;;;;;;;40.48;19.82;99880.84;1870587;76;22090;-65
2021/09/09 07:36:40;;;;;;;12.60;9.88;;;;;;;40.32;19.96;99875.61;1869979;76;22171;-61
2021/09/09 07:39:15;;;;;;;17.37;11.40;;;;;;;39.84;20.33;99881.27;1854904;76;27929;-63
2021/09/09 07:42:09;;;;;;;15.28;11.40;;;;;;;39.56;20.62;99879.84;1870512;76;22062;-66
2021/09/09 07:44:48;;;;;;;13.90;10.78;;;;;;;39.07;21.11;99879.92;1870294;76;22090;-70
2021/09/09 07:47:22;;;;;;;13.85;9.80;;;;;;;39.01;21.23;99876.97;1870508;76;22510;-61
2021/09/09 07:49:57;;;;;;;13.78;9.23;;;;;;;39.06;21.26;99876.89;1870616;76;22082;-68
2021/09/09 07:52:58;;;;;;;23.92;9.83;;;;;;;39.14;21.20;99878.02;1889765;76;22141;-68
2021/09/09 07:55:53;;;;;;;15.95;10.18;;;;;;;39.02;21.38;99876.81;1870107;76;22554;-65
2021/09/09 07:58:28;;;;;;;14.60;10.00;;;;;;;38.49;21.87;99873.16;1854902;76;27950;-69
2021/09/09 08:01:26;;;;;;;15.58;9.60;;;;;;;38.34;22.27;99880.77;1889869;76;22488;-67
2021/09/09 08:04:00;;;;;;;12.30;9.80;;;;;;;38.80;21.71;99873.02;1889943;76;22203;-68
2021/09/09 08:06:37;;;;;;;18.90;11.40;;;;;;;39.02;21.42;99867.36;1889529;76;22528;-72
2021/09/09 08:09:13;;;;;;;14.93;10.10;;;;;;;38.54;21.92;99872.73;1870647;76;22668;-65
2021/09/09 08:12:07;;;;;;;21.33;10.60;;;;;;;38.06;22.52;99866.23;1870648;76;22493;-62
2021/09/09 08:14:42;;;;;;;16.00;10.20;;;;;;;37.95;23.02;99859.58;1889790;76;22141;-64
2021/09/09 08:17:18;;;;;;;15.20;9.08;;;;;;;37.61;23.22;99861.23;1870351;76;22127;-68
2021/09/09 08:20:13;;;;;;;16.12;9.73;;;;;;;37.70;23.26;99861.75;1878563;75;22209;-66
2021/09/09 08:23:02;;;;;;;16.65;9.18;;;;;;;37.45;23.32;99853.59;1870629;76;22172;-62
2021/09/09 08:25:37;;;;;;;11.80;8.25;;;;;;;37.09;23.43;99853.59;1889666;76;22085;-67
2021/09/09 08:28:18;;;;;;;13.50;8.90;;;;;;;36.90;23.36;99856.48;1870489;76;22106;-62
2021/09/09 08:31:19;;;;;;;14.45;8.88;;;;;;;36.58;23.73;99852.95;1869833;76;22086;-67
2021/09/09 08:34:13;;;;;;;12.85;8.68;;;;;;;36.65;23.73;99852.81;1854807;76;27899;-69
2021/09/09 08:37:08;;;;;;;12.78;8.65;;;;;;;37.01;23.47;99852.02;1889691;76;22089;-65
2021/09/09 08:40:06;;;;;;;11.53;8.30;;;;;;;36.68;23.76;99853.39;1860248;76;22148;-69
2021/09/09 08:42:59;;;;;;;11.65;7.97;;;;;;;35.85;24.52;99852.59;1862135;76;22681;-62
2021/09/09 08:45:35;;;;;;;11.08;7.92;;;;;;;35.37;24.86;99845.58;1863099;76;22518;-62
2021/09/09 08:48:30;;;;;;;14.45;8.93;;;;;;;35.10;25.21;99849.91;1889777;76;22422;-66
2021/09/09 08:51:07;;;;;;;16.17;8.98;;;;;;;34.76;25.62;99848.44;1870722;76;20208;-67
2021/09/09 08:53:49;;;;;;;11.22;8.53;;;;;;;34.54;25.86;99841.60;1869800;76;22091;-68
2021/09/09 08:56:44;;;;;;;14.90;8.90;;;;;;;34.20;26.44;99825.84;1873652;76;38207;-63
2021/09/09 08:59:19;;;;;;;15.58;8.90;;;;;;;33.57;26.87;99837.89;1868572;76;22179;-67
2021/09/09 09:02:08;;;;;;;12.78;8.90;;;;;;;33.17;27.42;99833.09;1889937;76;22106;-65
2021/09/09 09:05:06;;;;;;;14.53;8.33;;;;;;;32.84;27.92;99831.73;1850568;76;22214;-67
2021/09/09 09:07:41;;;;;;;15.85;9.13;;;;;;;32.52;28.43;99819.20;1862786;76;22101;-64
2021/09/09 09:10:19;;;;;;;13.30;9.23;;;;;;;31.83;29.16;99822.27;1870457;76;22548;-65
2021/09/09 09:12:55;;;;;;;12.35;7.97;;;;;;;31.23;30.01;99828.15;1870546;76;22063;-66
2021/09/09 09:15:32;;;;;;;11.50;8.03;;;;;;;30.68;30.62;99822.08;1889668;76;22233;-67
2021/09/09 09:18:10;;;;;;;17.35;9.20;;;;;;;30.30;31.15;99814.48;1870541;76;22221;-67
2021/09/09 09:21:03;;;;;;;12.68;9.15;;;;;;;29.72;31.93;99812.42;1889872;76;22131;-67
2021/09/09 09:23:57;;;;;;;14.18;8.38;;;;;;;29.28;32.89;99805.83;1889895;76;22223;-68
2021/09/09 09:26:40;;;;;;;13.35;8.48;;;;;;;28.74;33.80;99811.23;1869356;76;20168;-67
2021/09/09 09:29:19;;;;;;;13.15;8.78;;;;;;;28.32;34.06;99799.12;1859738;76;22561;-65
2021/09/09 09:31:56;;;;;;;13.35;8.63;;;;;;;27.91;34.78;99795.34;1870772;76;22241;-69
2021/09/09 09:34:31;;;;;;;15.55;8.90;;;;;;;27.57;35.74;99792.03;1870561;76;22078;-66
2021/09/09 09:37:25;;;;;;;13.78;8.40;;;;;;;27.12;36.38;99785.20;1870477;76;22147;-65
2021/09/09 09:40:09;;;;;;;14.43;8.98;;;;;;;26.71;37.07;99786.97;1870651;76;22572;-69
2021/09/09 09:42:43;;;;;;;14.35;8.90;;;;;;;26.44;37.65;99780.56;1889897;76;22135;-66
2021/09/09 09:45:19;;;;;;;14.47;8.75;;;;;;;26.36;37.93;99781.34;1870424;76;22140;-66
2021/09/09 09:47:54;;;;;;;15.40;9.45;;;;;;;26.27;38.48;99780.37;1854553;76;28376;-66
2021/09/09 09:50:39;;;;;;;13.38;9.58;;;;;;;26.14;38.03;99776.91;1870694;76;22191;-66
2021/09/09 09:53:39;;;;;;;11.97;8.68;;;;;;;25.81;38.50;99773.77;1870554;76;22141;-66
2021/09/09 09:56:35;;;;;;;12.03;8.88;;;;;;;25.56;38.99;99773.84;1870413;76;22563;-65
2021/09/09 09:59:11;;;;;;;14.53;8.95;;;;;;;25.50;39.15;99764.83;1889957;76;22143;-68
2021/09/09 10:02:06;;;;;;;14.40;9.10;;;;;;;25.44;39.44;99758.44;1832578;77;22227;-64
2021/09/09 10:04:48;;;;;;;11.75;8.73;;;;;;;25.39;40.15;99761.27;1889681;76;22148;-67
2021/09/09 10:07:24;;;;;;;12.98;8.85;;;;;;;25.40;39.85;99755.06;1855473;76;22601;-67
2021/09/09 10:10:02;;;;;;;12.55;8.55;;;;;;;25.39;40.09;99750.70;1852430;76;22219;-66
2021/09/09 10:12:37;;;;;;;14.87;9.68;;;;;;;25.37;40.07;99759.61;1854755;76;28368;-64
2021/09/09 10:15:12;;;;;;;14.87;9.43;;;;;;;25.37;39.85;99756.97;1854439;76;28347;-67
2021/09/09 10:18:15;;;;;;;15.75;8.33;;;;;;;25.39;39.58;99757.75;1863345;76;22180;-68
2021/09/09 10:20:49;;;;;;;12.82;8.70;;;;;;;25.32;39.69;99755.81;1863597;76;22594;-65
2021/09/09 10:23:55;;;;;;;12.90;9.33;;;;;;;25.27;39.96;99742.77;1868478;76;22197;-65
2021/09/09 10:26:49;;;;;;;14.35;8.28;;;;;;;25.22;39.78;99739.42;1857503;76;22155;-63
2021/09/09 10:29:53;;;;;;;13.68;8.38;;;;;;;25.06;39.74;99749.66;1851609;75;22195;-63
2021/09/09 10:32:45;;;;;;;12.95;8.43;;;;;;;24.98;39.62;99744.23;1844202;75;22193;-63
2021/09/09 10:35:30;;;;;;;15.98;9.05;;;;;;;25.03;39.97;99736.55;1853039;76;22160;-62
2021/09/09 10:38:16;;;;;;;14.03;8.80;;;;;;;25.04;39.85;99733.47;1851419;76;22214;-64
2021/09/09 10:40:59;;;;;;;14.40;9.28;;;;;;;24.95;39.60;99736.43;1867607;76;22248;-62
2021/09/09 10:43:44;;;;;;;11.80;8.03;;;;;;;24.85;40.35;99726.18;1870659;76;22176;-65
2021/09/09 10:46:19;;;;;;;13.90;9.43;;;;;;;24.87;40.91;99734.92;1854256;76;22168;-67
2021/09/09 10:49:15;;;;;;;11.80;8.73;;;;;;;25.01;40.38;99729.59;1871455;76;22183;-65
2021/09/09 10:52:14;;;;;;;14.20;8.60;;;;;;;25.09;40.02;99718.31;1866745;76;22142;-66
2021/09/09 10:55:03;;;;;;;12.47;8.43;;;;;;;25.17;40.03;99728.17;1854757;76;22543;-65
2021/09/09 10:57:39;;;;;;;13.45;8.65;;;;;;;25.30;39.75;99728.58;1852751;76;22180;-65
2021/09/09 11:00:16;;;;;;;14.38;8.70;;;;;;;25.44;39.75;99728.05;1870337;76;22214;-65
2021/09/09 11:02:52;;;;;;;12.33;8.03;;;;;;;25.47;38.83;99718.70;1813327;76;22203;-63
2021/09/09 11:05:47;;;;;;;14.33;7.70;;;;;;;25.40;39.15;99719.85;1857167;75;22167;-61
2021/09/09 11:08:29;;;;;;;13.10;8.10;;;;;;;25.32;39.18;99710.89;1870562;76;22572;-64
2021/09/09 11:11:27;;;;;;;20.92;10.88;;;;;;;25.28;39.05;99715.41;1869489;75;22233;-64
2021/09/09 11:14:17;;;;;;;12.50;8.13;;;;;;;25.41;39.74;99709.20;1870601;76;22559;-66
2021/09/09 11:17:17;;;;;;;12.78;8.40;;;;;;;25.60;39.21;99704.09;1857412;76;22148;-61
2021/09/09 11:20:14;;;;;;;14.60;8.25;;;;;;;25.66;39.06;99700.34;1846422;76;22611;-64
2021/09/09 11:23:14;;;;;;;11.35;7.85;;;;;;;25.74;38.74;99698.25;1853155;76;22189;-65
2021/09/09 11:26:17;;;;;;;12.40;7.62;;;;;;;25.89;38.45;99699.45;1864352;76;22155;-63
2021/09/09 11:29:12;;;;;;;15.13;7.53;;;;;;;26.01;37.87;99691.03;1865696;76;22238;-62
2021/09/09 11:32:14;;;;;;;11.55;7.90;;;;;;;26.13;37.73;99689.20;1863748;76;22216;-67
2021/09/09 11:34:50;;;;;;;11.50;8.15;;;;;;;26.13;37.51;99685.23;1859314;76;22270;-65
2021/09/09 11:37:46;;;;;;;13.72;7.42;;;;;;;26.11;38.01;99680.94;1870517;76;22144;-65
2021/09/09 11:40:20;;;;;;;15.43;9.05;;;;;;;26.20;37.86;99681.42;1870554;76;22583;-64
2021/09/09 11:43:15;;;;;;;10.95;7.47;;;;;;;26.29;37.65;99663.43;1870494;76;22148;-65
2021/09/09 11:45:54;;;;;;;12.13;7.70;;;;;;;26.31;37.23;99662.91;1889744;76;22168;-63
2021/09/09 11:48:54;;;;;;;12.37;7.50;;;;;;;26.30;36.84;99657.20;1864656;76;22591;-65
2021/09/09 11:52:00;;;;;;;16.45;7.47;;;;;;;26.24;37.27;99670.70;1866502;75;22184;-63
2021/09/09 11:54:38;;;;;;;15.05;8.18;;;;;;;26.29;37.23;99658.98;1870569;76;22552;-62
2021/09/09 11:57:33;;;;;;;12.82;7.62;;;;;;;26.24;36.66;99661.44;1870733;76;22141;-67
2021/09/09 12:00:31;;;;;;;12.28;7.35;;;;;;;26.20;37.27;99658.05;1870382;76;22145;-63
2021/09/09 12:03:07;;;;;;;9.48;6.67;;;;;;;26.35;37.08;99661.36;1870402;76;22681;-66
2021/09/09 12:05:49;;;;;;;12.60;7.60;;;;;;;26.53;36.82;99654.45;1889712;76;22513;-66
2021/09/09 12:08:51;;;;;;;9.80;7.28;;;;;;;26.72;36.72;99645.72;1869666;76;22289;-61
2021/09/09 12:12:00;;;;;;;11.28;7.85;;;;;;;26.89;36.60;99644.94;1873789;76;28382;-69
2021/09/09 12:15:11;;;;;;;12.73;8.20;;;;;;;27.08;36.01;99637.03;1854741;76;28350;-66
2021/09/09 12:18:09;;;;;;;11.48;7.80;;;;;;;26.99;35.71;99642.27;1873837;76;27933;-67
2021/09/09 12:20:44;;;;;;;12.50;7.63;;;;;;;26.95;36.07;99644.20;1854810;76;27893;-65
2021/09/09 12:23:20;;;;;;;11.33;7.35;;;;;;;27.09;36.06;99636.94;1889946;76;20100;-67
2021/09/09 12:26:17;;;;;;;10.70;7.25;;;;;;;27.19;35.67;99630.31;1869364;76;22221;-61
2021/09/09 12:28:58;;;;;;;12.63;7.42;;;;;;;27.27;35.20;99631.27;1869725;76;22185;-67
2021/09/09 12:31:51;;;;;;;12.90;7.40;;;;;;;27.31;35.53;99633.33;1889709;76;22215;-65
2021/09/09 12:34:26;;;;;;;12.68;7.72;;;;;;;27.40;35.44;99624.92;1870482;76;22137;-66